createdAt,value
2022-10-08T00:00:22.539Z,19.40
2022-10-08T00:03:09.737Z,19.40
2022-10-08T00:05:58.592Z,19.40
2022-10-08T00:08:51.049Z,19.40
2022-10-08T00:11:40.334Z,19.40
2022-10-08T00:14:29.138Z,19.40
2022-10-08T00:17:16.418Z,19.40
2022-10-08T00:20:03.737Z,19.40
2022-10-08T00:22:51.169Z,19.40
2022-10-08T00:25:42.525Z,19.40
2022-10-08T00:28:30.240Z,19.40
2022-10-08T00:31:22.056Z,19.40
2022-10-08T00:34:12.752Z,19.40
2022-10-08T00:37:00.380Z,19.40
2022-10-08T00:39:47.662Z,19.40
2022-10-08T00:42:34.954Z,19.40
2022-10-08T00:45:22.329Z,19.40
2022-10-08T00:48:14.338Z,19.40
2022-10-08T00:51:02.500Z,19.40
2022-10-08T00:53:50.274Z,19.40
2022-10-08T00:56:40.048Z,19.40
2022-10-08T00:59:29.151Z,19.40
2022-10-08T01:02:17.152Z,19.40
2022-10-08T01:05:08.355Z,19.40
2022-10-08T01:08:04.523Z,19.40
2022-10-08T01:11:01.808Z,19.40
2022-10-08T01:13:57.844Z,19.40
2022-10-08T01:16:58.320Z,19.40
2022-10-08T01:20:28.619Z,19.40
2022-10-08T01:24:01.066Z,19.40
2022-10-08T01:26:58.952Z,19.40
2022-10-08T01:29:50.608Z,19.50
2022-10-08T01:32:44.167Z,19.50
2022-10-08T01:35:35.057Z,19.40
2022-10-08T01:38:25.844Z,19.40
2022-10-08T01:41:16.745Z,19.40
2022-10-08T01:44:08.643Z,19.40
2022-10-08T01:46:59.786Z,19.40
2022-10-08T01:49:52.812Z,19.40
2022-10-08T01:52:46.263Z,19.40
2022-10-08T01:55:38.663Z,19.40
2022-10-08T01:58:33.963Z,19.40
2022-10-08T02:01:28.997Z,19.40
2022-10-08T02:04:37.550Z,19.40
2022-10-08T02:07:28.937Z,19.40
2022-10-08T02:10:19.250Z,19.40
2022-10-08T02:13:06.711Z,19.40
2022-10-08T02:16:01.765Z,19.40
2022-10-08T02:18:58.418Z,19.40
2022-10-08T02:21:47.847Z,19.40
2022-10-08T02:24:41.437Z,19.40
2022-10-08T02:27:40.768Z,19.40
2022-10-08T02:30:38.368Z,19.40
2022-10-08T02:33:31.035Z,19.40
2022-10-08T02:36:24.427Z,19.40
2022-10-08T02:39:15.473Z,19.40
2022-10-08T02:42:09.253Z,19.40
2022-10-08T02:45:01.799Z,19.40
2022-10-08T02:47:56.724Z,19.40
2022-10-08T02:50:49.136Z,19.40
2022-10-08T02:53:39.406Z,19.40
2022-10-08T02:56:34.051Z,19.40
2022-10-08T02:59:23.076Z,19.50
2022-10-08T03:02:13.565Z,19.40
2022-10-08T03:05:05.824Z,19.40
2022-10-08T03:07:56.259Z,19.50
2022-10-08T03:10:45.280Z,19.50
2022-10-08T03:13:37.227Z,19.50
2022-10-08T03:16:29.294Z,19.50
2022-10-08T03:19:18.501Z,19.50
2022-10-08T03:22:06.915Z,19.50
2022-10-08T03:24:56.844Z,19.50
2022-10-08T03:27:44.705Z,19.50
2022-10-08T03:30:33.537Z,19.50
2022-10-08T03:33:21.111Z,19.50
2022-10-08T03:36:08.956Z,19.50
2022-10-08T03:38:56.577Z,19.50
2022-10-08T03:41:43.723Z,19.50
2022-10-08T03:44:30.981Z,19.50
2022-10-08T03:47:19.764Z,19.50
2022-10-08T03:50:08.631Z,19.50
2022-10-08T03:52:55.846Z,19.50
2022-10-08T03:55:43.303Z,19.50
2022-10-08T03:58:31.297Z,19.50
2022-10-08T04:01:19.201Z,19.50
2022-10-08T04:04:08.005Z,19.50
2022-10-08T04:06:55.493Z,19.50
2022-10-08T04:09:42.820Z,19.50
2022-10-08T04:12:30.988Z,19.50
2022-10-08T04:15:19.831Z,19.50
2022-10-08T04:18:07.371Z,19.50
2022-10-08T04:20:59.916Z,19.40
2022-10-08T04:23:49.588Z,19.40
2022-10-08T04:26:37.053Z,19.40
2022-10-08T04:29:24.608Z,19.40
2022-10-08T04:32:12.157Z,19.40
2022-10-08T04:34:59.741Z,19.40
2022-10-08T04:37:48.704Z,19.40
2022-10-08T04:40:36.209Z,19.40
2022-10-08T04:43:23.824Z,19.30
2022-10-08T04:46:13.856Z,19.30
2022-10-08T04:49:01.449Z,19.30
2022-10-08T04:51:48.961Z,19.30
2022-10-08T04:54:37.819Z,19.30
2022-10-08T04:57:25.381Z,19.30
2022-10-08T05:00:18.275Z,19.20
2022-10-08T05:03:06.277Z,19.20
2022-10-08T05:05:53.618Z,19.20
2022-10-08T05:08:40.875Z,19.20
2022-10-08T05:11:30.126Z,19.20
2022-10-08T05:14:17.452Z,19.10
2022-10-08T05:17:05.305Z,19.10
2022-10-08T05:19:52.883Z,19.10
2022-10-08T05:22:40.131Z,19.10
2022-10-08T05:25:27.749Z,19.10
2022-10-08T05:28:16.487Z,19.00
2022-10-08T05:31:04.040Z,19.00
2022-10-08T05:33:51.364Z,19.00
2022-10-08T05:36:39.027Z,19.00
2022-10-08T05:39:26.528Z,19.00
2022-10-08T05:42:14.101Z,18.90
2022-10-08T05:45:03.316Z,18.90
2022-10-08T05:47:51.011Z,18.90
2022-10-08T05:50:38.540Z,18.80
2022-10-08T05:53:25.790Z,18.80
2022-10-08T05:56:15.065Z,18.80
2022-10-08T05:59:02.743Z,18.80
2022-10-08T06:01:52.180Z,18.70
2022-10-08T06:04:21.155Z,18.70
2022-10-08T06:06:50.340Z,18.70
2022-10-08T06:09:23.350Z,18.60
2022-10-08T06:11:52.443Z,18.60
2022-10-08T06:14:21.451Z,18.60
2022-10-08T06:16:51.850Z,18.60
2022-10-08T06:19:21.040Z,18.50
2022-10-08T06:21:50.223Z,18.50
2022-10-08T06:24:19.547Z,18.50
2022-10-08T06:26:48.552Z,18.50
2022-10-08T06:29:19.639Z,18.50
2022-10-08T06:31:48.725Z,18.50
2022-10-08T06:34:19.168Z,18.40
2022-10-08T06:36:48.199Z,18.40
2022-10-08T06:39:17.997Z,18.40
2022-10-08T06:41:47.054Z,18.40
2022-10-08T06:44:19.075Z,18.40
2022-10-08T06:46:48.190Z,18.40
2022-10-08T06:49:19.554Z,18.40
2022-10-08T06:51:48.565Z,18.40
2022-10-08T06:54:17.548Z,18.40
2022-10-08T06:56:46.596Z,18.40
2022-10-08T06:59:15.636Z,18.40
2022-10-08T07:01:45.449Z,18.40
2022-10-08T07:04:14.527Z,18.40
2022-10-08T07:06:44.892Z,18.40
2022-10-08T07:09:14.003Z,18.40
2022-10-08T07:11:43.011Z,18.40
2022-10-08T07:14:15.259Z,18.40
2022-10-08T07:16:44.361Z,18.40
2022-10-08T07:19:13.409Z,18.40
2022-10-08T07:21:43.894Z,18.40
2022-10-08T07:24:13.060Z,18.40
2022-10-08T07:26:42.090Z,18.40
2022-10-08T07:29:16.208Z,18.50
2022-10-08T07:31:45.259Z,18.50
2022-10-08T07:34:14.946Z,18.50
2022-10-08T07:36:45.368Z,18.50
2022-10-08T07:39:18.839Z,18.60
2022-10-08T07:41:48.224Z,18.60
2022-10-08T07:44:18.546Z,18.60
2022-10-08T07:46:50.127Z,18.60
2022-10-08T07:49:20.694Z,18.60
2022-10-08T07:51:51.560Z,18.70
2022-10-08T07:54:21.458Z,18.70
2022-10-08T07:56:50.456Z,18.70
2022-10-08T07:59:19.487Z,18.80
2022-10-08T08:01:48.573Z,18.80
2022-10-08T08:04:17.688Z,18.80
2022-10-08T08:06:49.969Z,18.90
2022-10-08T08:09:19.447Z,18.90
2022-10-08T08:11:50.459Z,19.00
2022-10-08T08:14:20.555Z,19.00
2022-10-08T08:16:49.640Z,19.00
2022-10-08T08:19:18.686Z,19.10
2022-10-08T08:21:47.769Z,19.10
2022-10-08T08:24:18.384Z,19.20
2022-10-08T08:26:47.396Z,19.20
2022-10-08T08:29:18.851Z,19.30
2022-10-08T08:31:49.786Z,19.30
2022-10-08T08:34:21.043Z,19.30
2022-10-08T08:36:51.726Z,19.40
2022-10-08T08:39:24.743Z,19.50
2022-10-08T08:42:18.316Z,19.50
2022-10-08T08:44:51.165Z,19.60
2022-10-08T08:47:24.284Z,19.60
2022-10-08T08:49:56.881Z,19.70
2022-10-08T08:52:30.226Z,19.80
2022-10-08T08:55:01.713Z,19.90
2022-10-08T08:57:38.798Z,20.00
2022-10-08T09:00:15.406Z,20.10
2022-10-08T09:02:53.628Z,20.20
2022-10-08T09:05:25.132Z,20.30
2022-10-08T09:08:00.584Z,20.50
2022-10-08T09:10:40.701Z,20.60
2022-10-08T09:13:19.732Z,20.70
2022-10-08T09:15:48.784Z,20.80
2022-10-08T09:18:18.248Z,20.90
2022-10-08T09:20:47.253Z,21.00
2022-10-08T09:23:19.444Z,21.10
2022-10-08T09:25:55.727Z,21.20
2022-10-08T09:28:50.143Z,21.40
2022-10-08T09:31:27.732Z,21.50
2022-10-08T09:34:07.464Z,21.60
2022-10-08T09:36:39.751Z,21.60
2022-10-08T09:39:19.696Z,21.70
2022-10-08T09:42:13.623Z,21.80
2022-10-08T09:44:44.874Z,21.80
2022-10-08T09:47:16.755Z,21.90
2022-10-08T09:49:49.934Z,22.00
2022-10-08T09:52:22.881Z,22.10
2022-10-08T09:54:56.301Z,22.10
2022-10-08T09:57:26.748Z,22.20
2022-10-08T09:59:59.918Z,22.20
2022-10-08T10:02:32.735Z,22.30
2022-10-08T10:05:04.480Z,22.30
2022-10-08T10:07:42.853Z,22.30
2022-10-08T10:10:19.697Z,22.30
2022-10-08T10:12:55.119Z,22.30
2022-10-08T10:15:30.073Z,22.20
2022-10-08T10:18:03.605Z,22.20
2022-10-08T10:20:38.402Z,22.20
2022-10-08T10:23:14.686Z,22.20
2022-10-08T10:25:49.760Z,22.10
2022-10-08T10:28:27.815Z,22.10
2022-10-08T10:31:01.548Z,22.10
2022-10-08T10:33:34.372Z,22.10
2022-10-08T10:36:08.757Z,22.00
2022-10-08T10:38:43.784Z,22.00
2022-10-08T10:41:22.640Z,22.00
2022-10-08T10:43:56.021Z,21.90
2022-10-08T10:46:32.869Z,21.90
2022-10-08T10:49:01.981Z,21.90
2022-10-08T10:51:51.643Z,21.80
2022-10-08T10:54:46.709Z,21.80
2022-10-08T10:57:30.123Z,21.70
2022-10-08T11:00:07.657Z,21.70
2022-10-08T11:02:45.270Z,21.70
2022-10-08T11:05:21.661Z,21.70
2022-10-08T11:08:18.741Z,21.60
2022-10-08T11:11:03.699Z,21.60
2022-10-08T11:13:49.167Z,21.60
2022-10-08T11:16:37.604Z,21.50
2022-10-08T11:19:17.013Z,21.50
2022-10-08T11:21:59.515Z,21.50
2022-10-08T11:24:55.650Z,21.50
2022-10-08T11:27:39.826Z,21.50
2022-10-08T11:30:14.698Z,21.50
2022-10-08T11:32:51.741Z,21.40
2022-10-08T11:35:29.493Z,21.40
2022-10-08T11:38:08.029Z,21.40
2022-10-08T11:40:44.448Z,21.40
2022-10-08T11:43:19.052Z,21.40
2022-10-08T11:45:49.870Z,21.30
2022-10-08T11:48:35.451Z,21.40
2022-10-08T11:51:39.113Z,21.40
2022-10-08T11:54:13.721Z,21.40
2022-10-08T11:56:46.683Z,21.40
2022-10-08T11:59:37.536Z,21.40
2022-10-08T12:02:23.497Z,21.40
2022-10-08T12:04:56.003Z,21.40
2022-10-08T12:07:30.959Z,21.40
2022-10-08T12:10:31.093Z,21.40
2022-10-08T12:13:31.752Z,21.40
2022-10-08T12:16:04.959Z,21.40
2022-10-08T12:18:45.399Z,21.40
2022-10-08T12:21:55.465Z,21.40
2022-10-08T12:25:00.413Z,21.40
2022-10-08T12:27:37.799Z,21.40
2022-10-08T12:30:12.366Z,21.40
2022-10-08T12:32:57.021Z,21.40
2022-10-08T12:35:32.371Z,21.30
2022-10-08T12:38:33.732Z,21.30
2022-10-08T12:41:17.593Z,21.30
2022-10-08T12:43:54.133Z,21.40
2022-10-08T12:46:36.869Z,21.30
2022-10-08T12:49:16.788Z,21.40
2022-10-08T12:52:00.252Z,21.40
2022-10-08T12:54:32.267Z,21.40
2022-10-08T12:57:03.049Z,21.40
2022-10-08T12:59:33.366Z,21.40
2022-10-08T13:02:02.452Z,21.40
2022-10-08T13:04:34.668Z,21.40
2022-10-08T13:07:21.733Z,21.40
2022-10-08T13:09:56.985Z,21.40
2022-10-08T13:12:26.430Z,21.40
2022-10-08T13:15:05.944Z,21.40
2022-10-08T13:17:37.585Z,21.40
2022-10-08T13:20:13.646Z,21.40
2022-10-08T13:22:43.374Z,21.30
2022-10-08T13:25:38.011Z,21.30
2022-10-08T13:28:13.764Z,21.30
2022-10-08T13:30:46.384Z,21.40
2022-10-08T13:33:20.232Z,21.40
2022-10-08T13:35:55.351Z,21.40
2022-10-08T13:38:28.182Z,21.40
2022-10-08T13:41:03.984Z,21.40
2022-10-08T13:43:34.673Z,21.40
2022-10-08T13:46:03.840Z,21.40
2022-10-08T13:48:32.872Z,21.40
2022-10-08T13:51:03.027Z,21.40
2022-10-08T13:53:32.212Z,21.40
2022-10-08T13:56:02.684Z,21.40
2022-10-08T13:58:32.751Z,21.40
2022-10-08T14:01:02.016Z,21.40
2022-10-08T14:03:31.185Z,21.40
2022-10-08T14:06:00.242Z,21.40
2022-10-08T14:08:31.421Z,21.40
2022-10-08T14:11:03.009Z,21.40
2022-10-08T14:13:32.088Z,21.40
2022-10-08T14:16:01.232Z,21.40
2022-10-08T14:18:30.275Z,21.40
2022-10-08T14:20:59.296Z,21.50
2022-10-08T14:23:28.348Z,21.50
2022-10-08T14:25:57.348Z,21.50
2022-10-08T14:28:27.747Z,21.50
2022-10-08T14:30:57.550Z,21.50
2022-10-08T14:33:26.604Z,21.50
2022-10-08T14:35:55.664Z,21.50
2022-10-08T14:38:25.070Z,21.50
2022-10-08T14:40:54.081Z,21.50
2022-10-08T14:43:26.896Z,21.50
2022-10-08T14:45:58.136Z,21.50
2022-10-08T14:48:27.255Z,21.50
2022-10-08T14:50:58.838Z,21.50
2022-10-08T14:53:28.053Z,21.50
2022-10-08T14:56:11.590Z,21.50
2022-10-08T14:58:43.044Z,21.50
2022-10-08T15:01:13.493Z,21.50
2022-10-08T15:03:45.637Z,21.50
2022-10-08T15:06:14.768Z,21.50
2022-10-08T15:08:43.771Z,21.40
2022-10-08T15:11:12.878Z,21.40
2022-10-08T15:13:41.840Z,21.40
2022-10-08T15:16:14.272Z,21.40
2022-10-08T15:18:44.240Z,21.40
2022-10-08T15:21:13.256Z,21.40
2022-10-08T15:23:42.296Z,21.30
2022-10-08T15:26:15.267Z,21.40
2022-10-08T15:28:46.518Z,21.30
2022-10-08T15:31:19.877Z,21.30
2022-10-08T15:33:51.339Z,21.30
2022-10-08T15:36:22.123Z,21.30
2022-10-08T15:38:58.640Z,21.40
2022-10-08T15:41:29.772Z,21.30
2022-10-08T15:44:09.923Z,21.30
2022-10-08T15:46:40.424Z,21.30
2022-10-08T15:49:09.553Z,21.30
2022-10-08T15:51:38.680Z,21.30
2022-10-08T15:54:08.969Z,21.30
2022-10-08T15:56:38.129Z,21.30
2022-10-08T15:59:07.265Z,21.30
2022-10-08T16:01:36.957Z,21.20
2022-10-08T16:04:07.998Z,21.20
2022-10-08T16:06:37.519Z,21.20
2022-10-08T16:09:06.780Z,21.20
2022-10-08T16:11:36.594Z,21.20
2022-10-08T16:14:09.521Z,21.20
2022-10-08T16:16:39.692Z,21.20
2022-10-08T16:19:16.179Z,21.10
2022-10-08T16:21:46.500Z,21.10
2022-10-08T16:24:16.152Z,21.10
2022-10-08T16:26:47.082Z,21.10
2022-10-08T16:29:18.304Z,21.10
2022-10-08T16:31:48.818Z,21.00
2022-10-08T16:34:22.152Z,21.00
2022-10-08T16:36:51.592Z,21.00
2022-10-08T16:39:24.327Z,21.00
2022-10-08T16:41:53.406Z,21.00
2022-10-08T16:44:23.125Z,20.90
2022-10-08T16:46:53.821Z,20.90
2022-10-08T16:49:26.715Z,20.90
2022-10-08T16:51:58.158Z,20.80
2022-10-08T16:54:28.081Z,20.80
2022-10-08T16:56:57.727Z,20.80
2022-10-08T16:59:29.606Z,20.70
2022-10-08T17:02:01.040Z,20.70
2022-10-08T17:04:36.360Z,20.70
2022-10-08T17:07:05.456Z,20.70
2022-10-08T17:09:34.620Z,20.60
2022-10-08T17:12:04.049Z,20.60
2022-10-08T17:14:33.279Z,20.50
2022-10-08T17:17:02.394Z,20.50
2022-10-08T17:19:33.198Z,20.50
2022-10-08T17:22:02.277Z,20.50
2022-10-08T17:24:31.363Z,20.40
2022-10-08T17:27:00.452Z,20.40
2022-10-08T17:29:29.532Z,20.30
2022-10-08T17:31:59.785Z,20.30
2022-10-08T17:34:28.810Z,20.30
2022-10-08T17:36:59.308Z,20.30
2022-10-08T17:39:28.717Z,20.20
2022-10-08T17:41:57.767Z,20.20
2022-10-08T17:44:26.872Z,20.10
2022-10-08T17:46:55.991Z,20.10
2022-10-08T17:49:24.992Z,20.10
2022-10-08T17:51:54.059Z,20.00
2022-10-08T17:54:24.709Z,20.00
2022-10-08T17:56:54.225Z,20.00
2022-10-08T17:59:23.523Z,19.90
2022-10-08T18:01:53.125Z,19.90
2022-10-08T18:04:22.368Z,19.90
2022-10-08T18:06:51.384Z,19.80
2022-10-08T18:09:23.658Z,19.80
2022-10-08T18:11:54.303Z,19.80
2022-10-08T18:14:24.099Z,19.70
2022-10-08T18:16:53.256Z,19.70
2022-10-08T18:19:22.451Z,19.60
2022-10-08T18:21:51.735Z,19.60
2022-10-08T18:24:20.860Z,19.60
2022-10-08T18:26:51.510Z,19.50
2022-10-08T18:29:20.587Z,19.50
2022-10-08T18:31:49.556Z,19.50
2022-10-08T18:34:20.050Z,19.40
2022-10-08T18:36:49.177Z,19.40
2022-10-08T18:39:26.018Z,19.30
2022-10-08T18:41:58.525Z,19.30
2022-10-08T18:44:27.890Z,19.30
2022-10-08T18:47:00.596Z,19.20
2022-10-08T18:49:33.672Z,19.20
2022-10-08T18:52:02.957Z,19.20
2022-10-08T18:54:31.970Z,19.10
2022-10-08T18:57:02.352Z,19.10
2022-10-08T18:59:32.125Z,19.00
2022-10-08T19:02:01.256Z,19.00
2022-10-08T19:04:30.405Z,19.00
2022-10-08T19:06:59.422Z,18.90
2022-10-08T19:09:28.451Z,18.90
2022-10-08T19:11:57.923Z,18.90
2022-10-08T19:14:29.002Z,18.80
2022-10-08T19:16:59.747Z,18.80
2022-10-08T19:19:29.541Z,18.80
2022-10-08T19:22:00.400Z,18.70
2022-10-08T19:24:30.016Z,18.70
2022-10-08T19:26:59.366Z,18.70
2022-10-08T19:29:33.757Z,18.60
2022-10-08T19:32:03.016Z,18.60
2022-10-08T19:34:33.468Z,18.60
2022-10-08T19:37:02.727Z,18.50
2022-10-08T19:39:33.587Z,18.50
2022-10-08T19:42:02.636Z,18.50
2022-10-08T19:44:33.057Z,18.40
2022-10-08T19:47:04.066Z,18.40
2022-10-08T19:49:33.364Z,18.40
2022-10-08T19:52:02.402Z,18.30
2022-10-08T19:54:31.473Z,18.30
2022-10-08T19:57:00.483Z,18.30
2022-10-08T19:59:29.481Z,18.20
2022-10-08T20:01:59.905Z,18.20
2022-10-08T20:04:47.883Z,18.20
2022-10-08T20:07:35.523Z,18.10
2022-10-08T20:10:22.928Z,18.10
2022-10-08T20:13:10.245Z,18.10
2022-10-08T20:15:57.615Z,18.10
2022-10-08T20:18:50.984Z,18.00
2022-10-08T20:21:39.222Z,18.00
2022-10-08T20:24:26.632Z,17.90
2022-10-08T20:27:14.107Z,17.90
2022-10-08T20:30:01.356Z,17.90
2022-10-08T20:32:50.641Z,17.90
2022-10-08T20:35:39.535Z,17.80
2022-10-08T20:38:30.490Z,17.80
2022-10-08T20:41:18.236Z,17.80
2022-10-08T20:44:06.764Z,17.70
2022-10-08T20:46:54.351Z,17.70
2022-10-08T20:49:41.867Z,17.70
2022-10-08T20:52:30.831Z,17.60
2022-10-08T20:55:18.236Z,17.60
2022-10-08T20:58:06.002Z,17.60
2022-10-08T21:00:53.854Z,17.60
2022-10-08T21:03:43.939Z,17.60
2022-10-08T21:06:38.546Z,17.60
2022-10-08T21:09:27.232Z,17.50
2022-10-08T21:12:14.952Z,17.50
2022-10-08T21:15:02.184Z,17.40
2022-10-08T21:17:49.676Z,17.40
2022-10-08T21:20:37.431Z,17.40
2022-10-08T21:23:24.808Z,17.40
2022-10-08T21:26:15.602Z,17.40
2022-10-08T21:29:06.512Z,17.30
2022-10-08T21:31:54.236Z,17.30
2022-10-08T21:34:41.660Z,17.30
2022-10-08T21:37:29.007Z,17.20
2022-10-08T21:40:16.989Z,17.20
2022-10-08T21:43:06.035Z,17.10
2022-10-08T21:45:57.147Z,17.10
2022-10-08T21:48:44.913Z,17.10
2022-10-08T21:51:33.745Z,17.00
2022-10-08T21:54:21.425Z,17.00
2022-10-08T21:57:08.620Z,16.90
2022-10-08T21:59:57.281Z,16.90
2022-10-08T22:02:44.855Z,16.90
2022-10-08T22:05:32.207Z,16.90
2022-10-08T22:08:19.893Z,16.90
2022-10-08T22:11:08.156Z,16.90
2022-10-08T22:13:55.628Z,16.80
2022-10-08T22:16:44.457Z,16.80
2022-10-08T22:19:32.155Z,16.80
2022-10-08T22:22:19.457Z,16.70
2022-10-08T22:25:07.161Z,16.70
2022-10-08T22:27:54.492Z,16.70
2022-10-08T22:30:41.700Z,16.70
2022-10-08T22:33:31.379Z,16.60
2022-10-08T22:36:21.443Z,16.60
2022-10-08T22:39:09.435Z,16.60
2022-10-08T22:41:56.618Z,16.60
2022-10-08T22:44:44.039Z,16.50
2022-10-08T22:47:31.298Z,16.50
2022-10-08T22:50:20.373Z,16.50
2022-10-08T22:53:07.999Z,16.50
2022-10-08T22:55:55.324Z,16.40
2022-10-08T22:58:43.212Z,16.30
2022-10-08T23:01:31.545Z,16.30
2022-10-08T23:04:19.204Z,16.30
2022-10-08T23:07:08.272Z,16.30
2022-10-08T23:09:55.542Z,16.20
2022-10-08T23:12:42.837Z,16.20
2022-10-08T23:15:30.086Z,16.20
2022-10-08T23:18:17.555Z,16.20
2022-10-08T23:21:06.995Z,16.20
2022-10-08T23:23:56.507Z,16.10
2022-10-08T23:26:43.844Z,16.10
2022-10-08T23:29:31.140Z,16.10
2022-10-08T23:32:18.606Z,16.00
2022-10-08T23:35:06.928Z,16.00
2022-10-08T23:37:54.231Z,16.00
2022-10-08T23:40:43.373Z,16.00
2022-10-08T23:43:35.261Z,16.00
2022-10-08T23:46:25.954Z,15.90
2022-10-08T23:49:13.624Z,15.90
2022-10-08T23:52:00.864Z,15.90
2022-10-08T23:54:48.150Z,15.80
2022-10-08T23:57:36.906Z,15.80
